Aérodrome :
LOGIN :

S'inscrire | Disclaimer

   EN    FR    IT 

 










Légende :    VFR   VFR Marginal   IFR   IFR Intensif   IFR Très Intensif
Visi : 
Plafond : 
>= 8 km
>= 3000ft
5 à 8 km
1000 à 3000 ft
1500m à 5 km
500 à 1000 ft
800 à 1500m
200 à 500 ft
< 800m
< 200 ft
Symboles :   Orages  Brouillard  Fortes neiges  Fortes précipitations  Vent > 20 kt
SIGMETs :   Divers  Orages  Givrage  Turbulence  Onde Orograph.  Cendres Volcan.






- Altitude de l'aérodrome : 584 ft


LFPV - Villacoublay Vélizy

DERNIER METAR :
  • 171300Z AUTO 31011KT 9999 SCT020 SCT026 BKN033 07/03 Q1024 TEMPO 4000 -SHRA SCT020TCU

METARs EXPIRÉS :
  • 171230Z AUTO 30008KT 9999 BKN019 BKN025 OVC032 07/04 Q1024 TEMPO 4000 -SHRA SCT020TCU
  • 171200Z AUTO 29010KT 9999 BKN022 06/04 Q1024 TEMPO 4000 -SHRA SCT020TCU
  • 171130Z AUTO 30009KT 9999 FEW019 SCT028 BKN036 06/04 Q1024 TEMPO 4000 -SHRA SCT020TCU
  • 171100Z AUTO 28008KT 9999 SCT019 BKN026 BKN033 06/04 Q1024 TEMPO 4000 -SHRA SCT020TCU
  • 171030Z AUTO 27007KT 9999 BKN019 BKN024 OVC058 05/04 Q1023 TEMPO 4000 -SHRA SCT020TCU

TAF TAF LFPV
Valide du 17 à 09h jusqu'au 18 à 09h UTC


170800Z 1709/1809 29008KT 9999 SCT020 BKN050 TX07/1714Z TN03/1723Z
TEMPO 1711/1715 4000 -SHRA SCT020TCU
BECMG 1806/1808 BKN003
BECMG 1808/1809 0800 FG



MET'MAP, la Météo Aéronautique d'un coup d'oeil ! - Copyright ORBIFLY Décembre 2007 - Disclaimer

ORBIFLY MET'MAP TEAM :

Programmation & Développement : Alexandra Zaïnal
Sur une idée originale de : Baudouin d'Aumeries
Assistance à la programmation : Marc-Olivier Méhu
Soutien technique & logistique : Manuel Goepfert

Contact : metmap@orbifly.com




SOURCES & CREDITS :

   NOAA